Time;durP1;ratioP1;P1;durP2;ratioP2;P2;SDS_P1;SDS_P2;PMS_P1;PMS_P2;Temp;Humidity;BMP_temperature;BMP_pressure;BME280_temperature;BME280_humidity;BME280_pressure;Samples;Min_cycle;Max_cycle;Signal;HPM_P1;HPM_P2
2022/08/16 00:01:49;;;;;;;3.08;2.78;;;;;;;;;;4969326;28;20274;-64
2022/08/16 00:04:16;;;;;;;2.90;2.70;;;;;;;;;;4969936;28;20226;-62
2022/08/16 00:06:43;;;;;;;2.85;2.75;;;;;;;;;;4969325;28;20210;-63
2022/08/16 00:09:11;;;;;;;2.42;2.22;;;;;;;;;;4969447;28;20210;-62
2022/08/16 00:11:39;;;;;;;2.60;2.40;;;;;;;;;;4968918;28;20230;-63
2022/08/16 00:14:08;;;;;;;2.60;2.40;;;;;;;;;;4969398;28;20207;-62
2022/08/16 00:16:36;;;;;;;2.75;2.55;;;;;;;;;;4969184;28;20213;-63
2022/08/16 00:19:03;;;;;;;3.15;2.80;;;;;;;;;;4966983;28;20234;-63
2022/08/16 00:21:30;;;;;;;2.00;2.00;;;;;;;;;;4969555;28;20297;-62
2022/08/16 00:23:58;;;;;;;2.45;2.35;;;;;;;;;;4964466;28;20676;-62
2022/08/16 00:26:26;;;;;;;2.35;2.25;;;;;;;;;;4967137;28;20199;-63
2022/08/16 00:28:53;;;;;;;1.85;1.85;;;;;;;;;;4969082;28;20210;-62
2022/08/16 00:31:21;;;;;;;2.00;2.00;;;;;;;;;;4967241;28;20206;-62
2022/08/16 00:33:48;;;;;;;3.90;2.00;;;;;;;;;;4968852;28;20206;-62
2022/08/16 00:36:15;;;;;;;1.63;1.63;;;;;;;;;;4965079;28;20214;-62
2022/08/16 00:38:42;;;;;;;1.73;1.70;;;;;;;;;;4964256;28;20214;-62
2022/08/16 00:41:09;;;;;;;1.73;1.63;;;;;;;;;;4967258;28;20206;-62
2022/08/16 00:43:37;;;;;;;1.60;1.60;;;;;;;;;;4968395;28;20211;-62
2022/08/16 00:46:07;;;;;;;2.03;1.92;;;;;;;;;;4967697;28;20203;-62
2022/08/16 00:48:34;;;;;;;1.90;1.90;;;;;;;;;;4969179;28;20211;-62
2022/08/16 00:51:02;;;;;;;1.73;1.73;;;;;;;;;;4968404;28;20207;-63
2022/08/16 00:53:29;;;;;;;1.77;1.77;;;;;;;;;;4967864;28;20222;-63
2022/08/16 00:55:57;;;;;;;2.15;1.73;;;;;;;;;;4965916;28;20203;-62
2022/08/16 00:58:26;;;;;;;1.75;1.75;;;;;;;;;;4968249;28;20209;-63
2022/08/16 01:00:55;;;;;;;2.28;2.17;;;;;;;;;;4968308;28;20211;-62
2022/08/16 01:03:27;;;;;;;2.88;2.35;;;;;;;;;;4967958;28;20413;-62
2022/08/16 01:05:54;;;;;;;1.85;1.83;;;;;;;;;;4970395;28;20214;-62
2022/08/16 01:08:23;;;;;;;5.60;2.00;;;;;;;;;;4971799;28;20668;-62
2022/08/16 01:10:51;;;;;;;1.90;1.80;;;;;;;;;;4972294;28;20699;-62
2022/08/16 01:13:21;;;;;;;1.90;1.90;;;;;;;;;;4972192;28;20563;-62
2022/08/16 01:15:50;;;;;;;1.88;1.77;;;;;;;;;;4971966;28;20202;-62
2022/08/16 01:18:20;;;;;;;1.80;1.80;;;;;;;;;;4970248;28;20308;-62
2022/08/16 01:20:50;;;;;;;2.55;2.00;;;;;;;;;;4972485;28;20202;-62
2022/08/16 01:23:21;;;;;;;1.80;1.80;;;;;;;;;;4969839;28;20269;-63
2022/08/16 01:25:52;;;;;;;2.08;1.90;;;;;;;;;;4969449;28;20582;-62
2022/08/16 01:28:20;;;;;;;2.30;2.20;;;;;;;;;;4970418;28;20688;-62
2022/08/16 01:30:49;;;;;;;2.20;2.10;;;;;;;;;;4971985;28;20207;-62
2022/08/16 01:33:17;;;;;;;2.20;2.20;;;;;;;;;;4971507;28;20227;-63
2022/08/16 01:35:45;;;;;;;2.42;2.30;;;;;;;;;;4971008;28;20700;-63
2022/08/16 01:38:18;;;;;;;1.90;1.90;;;;;;;;;;4971276;28;20215;-63
2022/08/16 01:40:45;;;;;;;2.25;2.10;;;;;;;;;;4969425;28;20581;-62
2022/08/16 01:43:14;;;;;;;2.08;1.90;;;;;;;;;;4970324;28;20206;-62
2022/08/16 01:45:41;;;;;;;2.20;2.10;;;;;;;;;;4970898;28;20202;-62
2022/08/16 01:48:08;;;;;;;2.20;2.10;;;;;;;;;;4971223;28;20673;-62
2022/08/16 01:50:36;;;;;;;1.70;1.65;;;;;;;;;;4971356;28;20210;-62
2022/08/16 01:53:03;;;;;;;2.35;2.25;;;;;;;;;;4971043;28;20289;-62
2022/08/16 01:55:30;;;;;;;2.42;2.33;;;;;;;;;;4971523;28;20202;-62
2022/08/16 01:57:57;;;;;;;2.58;2.50;;;;;;;;;;4969694;28;20214;-62
2022/08/16 02:00:27;;;;;;;2.15;2.05;;;;;;;;;;4970308;28;20236;-62
2022/08/16 02:02:54;;;;;;;2.30;2.20;;;;;;;;;;4970455;28;20217;-62
2022/08/16 02:05:22;;;;;;;2.22;2.13;;;;;;;;;;4971133;28;20218;-62
2022/08/16 02:07:49;;;;;;;2.50;2.30;;;;;;;;;;4970909;28;20202;-62
2022/08/16 02:10:16;;;;;;;2.45;2.30;;;;;;;;;;4970240;28;20203;-63
2022/08/16 02:12:43;;;;;;;2.17;2.08;;;;;;;;;;4970937;28;20226;-63
2022/08/16 02:15:10;;;;;;;2.33;2.30;;;;;;;;;;4969045;28;20210;-63
2022/08/16 02:17:39;;;;;;;2.35;2.15;;;;;;;;;;4970172;28;20238;-63
2022/08/16 02:20:07;;;;;;;2.38;2.30;;;;;;;;;;4970194;28;20233;-63
2022/08/16 02:22:35;;;;;;;2.50;2.38;;;;;;;;;;4971092;28;20205;-63
2022/08/16 02:25:02;;;;;;;2.58;2.47;;;;;;;;;;4969524;28;20657;-63
2022/08/16 02:27:29;;;;;;;2.80;2.70;;;;;;;;;;4970382;28;20254;-63
2022/08/16 02:29:56;;;;;;;3.63;2.80;;;;;;;;;;4967466;28;20273;-63
2022/08/16 02:32:23;;;;;;;2.58;2.38;;;;;;;;;;4967696;28;20321;-63
2022/08/16 02:34:52;;;;;;;2.63;2.47;;;;;;;;;;4970157;28;20202;-63
2022/08/16 02:37:19;;;;;;;2.08;1.98;;;;;;;;;;4970504;28;20206;-63
2022/08/16 02:39:46;;;;;;;2.58;2.42;;;;;;;;;;4970226;28;20253;-63
2022/08/16 02:42:13;;;;;;;2.10;2.00;;;;;;;;;;4970389;28;20210;-64
2022/08/16 02:44:40;;;;;;;2.83;2.72;;;;;;;;;;4970239;28;20207;-63
2022/08/16 02:47:07;;;;;;;2.35;2.25;;;;;;;;;;4969093;28;20222;-63
2022/08/16 02:49:35;;;;;;;2.20;2.00;;;;;;;;;;4969034;28;20210;-63
2022/08/16 02:52:03;;;;;;;2.58;2.47;;;;;;;;;;4969464;28;20225;-63
2022/08/16 02:54:30;;;;;;;2.78;2.58;;;;;;;;;;4966860;28;20227;-63
2022/08/16 02:56:57;;;;;;;2.60;2.40;;;;;;;;;;4969023;28;20257;-62
2022/08/16 02:59:26;;;;;;;3.08;2.47;;;;;;;;;;4969461;28;20206;-63
2022/08/16 03:01:53;;;;;;;2.20;2.10;;;;;;;;;;4968930;28;20317;-62
2022/08/16 03:04:20;;;;;;;2.38;2.17;;;;;;;;;;4969535;28;20222;-62
2022/08/16 03:06:47;;;;;;;2.20;2.20;;;;;;;;;;4969410;28;20265;-63
2022/08/16 03:09:15;;;;;;;3.28;2.05;;;;;;;;;;4969257;28;20202;-63
2022/08/16 03:11:43;;;;;;;1.95;1.85;;;;;;;;;;4969863;28;20621;-63
2022/08/16 03:14:11;;;;;;;2.00;2.00;;;;;;;;;;4969556;28;20222;-63
2022/08/16 03:16:38;;;;;;;2.60;2.40;;;;;;;;;;4968576;28;20214;-62
2022/08/16 03:19:05;;;;;;;2.65;2.45;;;;;;;;;;4969350;28;20355;-63
2022/08/16 03:21:32;;;;;;;2.30;2.20;;;;;;;;;;4968077;28;20297;-62
2022/08/16 03:23:59;;;;;;;2.50;2.40;;;;;;;;;;4969692;28;20202;-63
2022/08/16 03:26:27;;;;;;;2.78;2.67;;;;;;;;;;4967876;28;20214;-62
2022/08/16 03:28:54;;;;;;;2.65;2.55;;;;;;;;;;4969220;28;20281;-63
2022/08/16 03:31:22;;;;;;;2.65;2.55;;;;;;;;;;4969608;28;20217;-62
2022/08/16 03:33:49;;;;;;;2.47;2.38;;;;;;;;;;4969229;28;20328;-62
2022/08/16 03:36:16;;;;;;;2.50;2.30;;;;;;;;;;4969921;28;20211;-63
2022/08/16 03:38:43;;;;;;;2.65;2.45;;;;;;;;;;4969324;28;20701;-63
2022/08/16 03:41:10;;;;;;;2.95;2.58;;;;;;;;;;4969141;28;20213;-63
2022/08/16 03:43:39;;;;;;;2.20;2.10;;;;;;;;;;4969550;28;20285;-63
2022/08/16 03:46:06;;;;;;;2.67;2.55;;;;;;;;;;4969150;28;20202;-63
2022/08/16 03:48:34;;;;;;;2.63;2.42;;;;;;;;;;4969323;28;20273;-62
2022/08/16 03:51:02;;;;;;;2.25;2.17;;;;;;;;;;4969455;28;20206;-63
2022/08/16 03:53:29;;;;;;;2.47;2.38;;;;;;;;;;4969695;28;20826;-63
2022/08/16 03:55:56;;;;;;;4.35;2.97;;;;;;;;;;4969047;28;20206;-63
2022/08/16 03:58:23;;;;;;;2.97;2.78;;;;;;;;;;4966814;28;20214;-63
2022/08/16 04:00:54;;;;;;;2.65;2.55;;;;;;;;;;4968324;28;20207;-63
2022/08/16 04:03:21;;;;;;;2.78;2.58;;;;;;;;;;4960164;28;20217;-63
2022/08/16 04:05:50;;;;;;;2.17;2.15;;;;;;;;;;4967345;28;20214;-63
2022/08/16 04:08:18;;;;;;;2.95;2.75;;;;;;;;;;4966819;28;20202;-63
2022/08/16 04:10:45;;;;;;;2.67;2.58;;;;;;;;;;4968631;28;20293;-63
2022/08/16 04:13:12;;;;;;;2.88;2.78;;;;;;;;;;4969127;28;20231;-62
2022/08/16 04:15:39;;;;;;;3.15;2.95;;;;;;;;;;4969292;28;20620;-63
2022/08/16 04:18:08;;;;;;;2.95;2.75;;;;;;;;;;4968656;28;20234;-62
2022/08/16 04:20:35;;;;;;;3.45;3.20;;;;;;;;;;4969163;28;20285;-62
2022/08/16 04:23:03;;;;;;;2.78;2.67;;;;;;;;;;4969476;28;20211;-63
2022/08/16 04:25:30;;;;;;;2.75;2.65;;;;;;;;;;4969702;28;20217;-63
2022/08/16 04:27:57;;;;;;;2.75;2.58;;;;;;;;;;4969311;28;20263;-62
2022/08/16 04:30:25;;;;;;;3.20;2.92;;;;;;;;;;4969030;28;20210;-62
2022/08/16 04:32:52;;;;;;;3.35;3.15;;;;;;;;;;4969655;28;20230;-63
2022/08/16 04:35:22;;;;;;;3.15;3.05;;;;;;;;;;4969411;28;20576;-62
2022/08/16 04:37:49;;;;;;;3.25;3.05;;;;;;;;;;4970023;28;20316;-62
2022/08/16 04:40:17;;;;;;;2.65;2.55;;;;;;;;;;4973038;28;20203;-63
2022/08/16 04:42:44;;;;;;;2.58;2.38;;;;;;;;;;4973495;28;20210;-64
2022/08/16 04:45:12;;;;;;;3.60;3.38;;;;;;;;;;4973524;28;20203;-65
2022/08/16 04:47:42;;;;;;;3.33;3.13;;;;;;;;;;4973512;28;20318;-66
2022/08/16 04:50:10;;;;;;;2.78;2.60;;;;;;;;;;4972821;28;20661;-66
2022/08/16 04:52:39;;;;;;;3.03;2.83;;;;;;;;;;4972469;28;20661;-65
2022/08/16 04:55:07;;;;;;;3.38;3.17;;;;;;;;;;4973060;28;20273;-66
2022/08/16 04:57:35;;;;;;;3.55;3.25;;;;;;;;;;4971641;28;20210;-66
2022/08/16 05:00:02;;;;;;;2.78;2.65;;;;;;;;;;4972609;28;20265;-65
2022/08/16 05:02:30;;;;;;;3.08;2.80;;;;;;;;;;4972243;28;20213;-66
2022/08/16 05:04:57;;;;;;;3.60;3.30;;;;;;;;;;4973027;28;20218;-66
2022/08/16 05:07:24;;;;;;;3.40;3.10;;;;;;;;;;4969806;28;20213;-66
2022/08/16 05:09:52;;;;;;;3.22;3.00;;;;;;;;;;4973047;28;20229;-66
2022/08/16 05:12:19;;;;;;;3.17;2.88;;;;;;;;;;4973012;28;20210;-65
2022/08/16 05:14:46;;;;;;;3.35;3.15;;;;;;;;;;4972618;28;20261;-65
2022/08/16 05:17:14;;;;;;;8.40;3.90;;;;;;;;;;4972391;28;20234;-66
2022/08/16 05:19:41;;;;;;;3.17;3.03;;;;;;;;;;4970431;28;20234;-66
2022/08/16 05:22:08;;;;;;;3.67;3.38;;;;;;;;;;4970246;28;20210;-65
2022/08/16 05:24:35;;;;;;;3.95;3.75;;;;;;;;;;4972657;28;20581;-66
2022/08/16 05:27:03;;;;;;;3.33;3.13;;;;;;;;;;4972456;28;20502;-65
2022/08/16 05:29:30;;;;;;;4.10;3.67;;;;;;;;;;4973024;28;20217;-65
2022/08/16 05:31:57;;;;;;;3.90;3.67;;;;;;;;;;4972276;28;20277;-65
2022/08/16 05:34:24;;;;;;;3.60;3.30;;;;;;;;;;4970966;28;20238;-66
2022/08/16 05:36:55;;;;;;;3.45;3.25;;;;;;;;;;4972347;28;20214;-66
2022/08/16 05:39:23;;;;;;;4.18;3.88;;;;;;;;;;4972506;28;20241;-66
2022/08/16 05:41:50;;;;;;;3.92;3.72;;;;;;;;;;4972089;28;20203;-66
2022/08/16 05:44:20;;;;;;;5.05;3.05;;;;;;;;;;4972741;28;20218;-65
2022/08/16 05:46:47;;;;;;;3.00;2.80;;;;;;;;;;4971932;28;20213;-67
2022/08/16 05:49:15;;;;;;;4.03;3.83;;;;;;;;;;4971452;28;20665;-67
2022/08/16 05:51:42;;;;;;;5.38;3.58;;;;;;;;;;4971003;28;20308;-67
2022/08/16 05:54:10;;;;;;;3.63;3.42;;;;;;;;;;4970541;28;20230;-67
2022/08/16 05:56:37;;;;;;;3.67;3.47;;;;;;;;;;4971188;28;20206;-66
2022/08/16 05:59:04;;;;;;;3.42;3.22;;;;;;;;;;4969342;28;20736;-66
2022/08/16 06:01:33;;;;;;;3.80;3.50;;;;;;;;;;4970549;28;20699;-66
2022/08/16 06:04:00;;;;;;;4.07;3.78;;;;;;;;;;4969087;28;20234;-65
2022/08/16 06:06:27;;;;;;;4.97;3.80;;;;;;;;;;4971226;28;20233;-66
2022/08/16 06:08:54;;;;;;;4.32;4.07;;;;;;;;;;4969576;28;20206;-66
2022/08/16 06:11:21;;;;;;;5.03;4.50;;;;;;;;;;4968956;28;20203;-66
2022/08/16 06:13:48;;;;;;;4.10;3.80;;;;;;;;;;4971158;28;20226;-66
2022/08/16 06:16:15;;;;;;;4.72;4.32;;;;;;;;;;4970899;28;20673;-67
2022/08/16 06:18:44;;;;;;;4.85;4.45;;;;;;;;;;4968558;28;20340;-67
2022/08/16 06:21:11;;;;;;;4.82;3.80;;;;;;;;;;4971492;28;20233;-66
2022/08/16 06:23:38;;;;;;;4.45;3.72;;;;;;;;;;4972355;28;20665;-66
2022/08/16 06:26:05;;;;;;;3.70;3.50;;;;;;;;;;4970401;28;20555;-66
2022/08/16 06:28:33;;;;;;;3.72;3.53;;;;;;;;;;4971191;28;20210;-66
2022/08/16 06:31:00;;;;;;;3.72;3.53;;;;;;;;;;4970668;28;20262;-66
2022/08/16 06:33:27;;;;;;;4.13;3.85;;;;;;;;;;4968334;28;20214;-66
2022/08/16 06:35:56;;;;;;;4.03;3.72;;;;;;;;;;4970449;28;20856;-66
2022/08/16 06:38:24;;;;;;;4.10;3.90;;;;;;;;;;4967172;28;20265;-66
2022/08/16 06:40:51;;;;;;;4.85;4.45;;;;;;;;;;4965467;28;20206;-65
2022/08/16 06:43:19;;;;;;;4.95;4.55;;;;;;;;;;4970462;28;20698;-66
2022/08/16 06:45:46;;;;;;;3.72;3.53;;;;;;;;;;4970005;28;20206;-66
2022/08/16 06:48:13;;;;;;;6.25;3.17;;;;;;;;;;4971920;28;20608;-66
2022/08/16 06:50:41;;;;;;;4.30;3.20;;;;;;;;;;4968426;28;20673;-66
2022/08/16 06:53:09;;;;;;;4.07;3.88;;;;;;;;;;4969272;28;20540;-67
2022/08/16 06:55:36;;;;;;;3.10;2.90;;;;;;;;;;4969513;28;20234;-66
2022/08/16 06:58:03;;;;;;;3.42;3.22;;;;;;;;;;4970408;28;20203;-66
2022/08/16 07:00:31;;;;;;;3.42;3.22;;;;;;;;;;4969683;28;20302;-66
2022/08/16 07:02:58;;;;;;;3.00;2.90;;;;;;;;;;4969938;28;20233;-67
2022/08/16 07:05:25;;;;;;;3.63;3.42;;;;;;;;;;4969644;28;20207;-66
2022/08/16 07:07:52;;;;;;;3.90;3.80;;;;;;;;;;4970211;28;20222;-66
2022/08/16 07:10:21;;;;;;;3.60;3.40;;;;;;;;;;4969937;28;20210;-65
2022/08/16 07:12:49;;;;;;;3.75;3.55;;;;;;;;;;4969412;28;20256;-66
2022/08/16 07:15:16;;;;;;;3.90;3.60;;;;;;;;;;4969577;28;20669;-66
2022/08/16 07:17:44;;;;;;;3.95;3.75;;;;;;;;;;4967704;28;20473;-66
2022/08/16 07:20:11;;;;;;;3.47;3.28;;;;;;;;;;4970550;28;20342;-66
2022/08/16 07:22:39;;;;;;;3.53;3.35;;;;;;;;;;4981633;28;20213;-65
2022/08/16 07:25:07;;;;;;;3.80;3.60;;;;;;;;;;4969370;28;20214;-63
2022/08/16 07:27:37;;;;;;;4.32;4.03;;;;;;;;;;4967878;28;20261;-61
2022/08/16 07:30:06;;;;;;;3.42;3.13;;;;;;;;;;4969532;28;20609;-64
2022/08/16 07:32:33;;;;;;;4.68;4.28;;;;;;;;;;4969202;28;20672;-64
2022/08/16 07:35:00;;;;;;;5.40;3.97;;;;;;;;;;4969392;28;20238;-64
2022/08/16 07:37:27;;;;;;;3.92;3.72;;;;;;;;;;4968938;28;20648;-63
2022/08/16 07:39:54;;;;;;;4.93;4.53;;;;;;;;;;4969195;28;20685;-62
2022/08/16 07:42:21;;;;;;;4.13;3.80;;;;;;;;;;4969126;28;20205;-62
2022/08/16 07:44:50;;;;;;;4.15;3.75;;;;;;;;;;4968786;28;20210;-62
2022/08/16 07:47:17;;;;;;;3.40;3.20;;;;;;;;;;4967792;28;20795;-62
2022/08/16 07:49:44;;;;;;;3.63;3.47;;;;;;;;;;4968993;28;20206;-62
2022/08/16 07:52:11;;;;;;;3.85;3.65;;;;;;;;;;4968278;28;20207;-62
2022/08/16 07:54:38;;;;;;;7.75;4.05;;;;;;;;;;4968613;28;20232;-63
2022/08/16 07:57:05;;;;;;;3.95;3.75;;;;;;;;;;4968943;28;20217;-64
2022/08/16 07:59:33;;;;;;;4.05;3.75;;;;;;;;;;4966665;28;20241;-64
2022/08/16 08:02:01;;;;;;;3.60;3.45;;;;;;;;;;4965563;28;20236;-65
2022/08/16 08:04:31;;;;;;;5.75;4.28;;;;;;;;;;4967440;28;20206;-63
2022/08/16 08:06:58;;;;;;;4.40;4.13;;;;;;;;;;4968800;28;20623;-64
2022/08/16 08:09:25;;;;;;;5.40;4.90;;;;;;;;;;4968854;28;20618;-65
2022/08/16 08:11:52;;;;;;;4.28;3.97;;;;;;;;;;4969338;28;20214;-64
2022/08/16 08:14:20;;;;;;;5.72;5.32;;;;;;;;;;4971548;28;20227;-68
2022/08/16 08:16:47;;;;;;;4.15;3.90;;;;;;;;;;4964359;28;20232;-68
2022/08/16 08:19:15;;;;;;;3.97;3.78;;;;;;;;;;4972528;28;20304;-68
2022/08/16 08:21:43;;;;;;;4.10;3.90;;;;;;;;;;4972111;28;20210;-67
2022/08/16 08:24:11;;;;;;;4.05;3.83;;;;;;;;;;4972201;28;20845;-69
2022/08/16 08:26:39;;;;;;;3.88;3.58;;;;;;;;;;4972268;28;20209;-67
2022/08/16 08:29:06;;;;;;;4.07;3.78;;;;;;;;;;4972265;28;20214;-68
2022/08/16 08:31:35;;;;;;;4.45;4.15;;;;;;;;;;4972529;28;20740;-69
2022/08/16 08:34:02;;;;;;;3.83;3.60;;;;;;;;;;4971782;28;20301;-68
2022/08/16 08:36:31;;;;;;;4.30;4.00;;;;;;;;;;4972622;28;20202;-67
2022/08/16 08:38:58;;;;;;;4.05;3.85;;;;;;;;;;4972504;28;20294;-68
2022/08/16 08:41:28;;;;;;;4.25;3.92;;;;;;;;;;4972388;28;20205;-68
2022/08/16 08:43:55;;;;;;;3.63;3.33;;;;;;;;;;4981443;28;20197;-68
2022/08/16 08:46:22;;;;;;;4.20;3.90;;;;;;;;;;4982851;28;20206;-69
2022/08/16 08:48:50;;;;;;;4.43;4.03;;;;;;;;;;4972303;28;20672;-68
2022/08/16 08:51:17;;;;;;;5.00;4.60;;;;;;;;;;4974098;28;20679;-68
2022/08/16 08:53:47;;;;;;;3.42;3.22;;;;;;;;;;4988167;28;20202;-68
2022/08/16 08:56:14;;;;;;;5.13;4.60;;;;;;;;;;4972330;28;20233;-68
2022/08/16 08:58:41;;;;;;;4.30;4.10;;;;;;;;;;4970261;28;20552;-69
2022/08/16 09:01:09;;;;;;;3.90;3.70;;;;;;;;;;4970858;28;20298;-68
2022/08/16 09:03:37;;;;;;;3.78;3.47;;;;;;;;;;4970629;28;20556;-68
2022/08/16 09:06:05;;;;;;;3.83;3.53;;;;;;;;;;4972713;28;20272;-68
2022/08/16 09:08:33;;;;;;;3.55;3.35;;;;;;;;;;4972347;28;20577;-68
2022/08/16 09:11:02;;;;;;;3.17;2.97;;;;;;;;;;4969282;28;20244;-67
2022/08/16 09:13:31;;;;;;;3.25;3.08;;;;;;;;;;4971897;28;20570;-68
2022/08/16 09:15:58;;;;;;;3.58;3.38;;;;;;;;;;4968705;28;20226;-68
2022/08/16 09:18:26;;;;;;;3.17;3.08;;;;;;;;;;4967647;28;20613;-68
2022/08/16 09:20:54;;;;;;;3.72;3.53;;;;;;;;;;4968082;28;20210;-68
2022/08/16 09:23:22;;;;;;;3.20;3.10;;;;;;;;;;4972221;28;20290;-67
2022/08/16 09:25:49;;;;;;;4.00;3.70;;;;;;;;;;4968061;28;20195;-67
2022/08/16 09:28:18;;;;;;;3.40;3.30;;;;;;;;;;4969631;28;20595;-69
2022/08/16 09:30:45;;;;;;;3.80;3.65;;;;;;;;;;4969755;28;20285;-67
2022/08/16 09:33:17;;;;;;;3.55;3.35;;;;;;;;;;4969678;28;20273;-73
2022/08/16 09:35:44;;;;;;;3.72;3.53;;;;;;;;;;4966637;28;20812;-74
2022/08/16 09:38:12;;;;;;;2.80;2.70;;;;;;;;;;4976135;28;20260;-74
2022/08/16 09:40:40;;;;;;;3.03;2.92;;;;;;;;;;4976798;28;20252;-73
2022/08/16 09:43:07;;;;;;;3.30;3.20;;;;;;;;;;4970071;28;20218;-74
2022/08/16 09:45:37;;;;;;;3.10;3.00;;;;;;;;;;4972263;28;20210;-69
2022/08/16 09:48:05;;;;;;;3.55;3.45;;;;;;;;;;4971953;28;20207;-74
2022/08/16 09:50:34;;;;;;;3.28;3.15;;;;;;;;;;4971814;28;20210;-72
2022/08/16 09:53:01;;;;;;;3.05;2.95;;;;;;;;;;4971946;28;20206;-70
2022/08/16 09:55:28;;;;;;;2.70;2.60;;;;;;;;;;4971785;28;20244;-71
2022/08/16 09:57:56;;;;;;;3.67;3.38;;;;;;;;;;4971682;28;20301;-74
2022/08/16 10:00:25;;;;;;;4.30;3.95;;;;;;;;;;4970798;28;20216;-75
2022/08/16 10:02:54;;;;;;;3.85;3.55;;;;;;;;;;4969994;28;20252;-73
2022/08/16 10:05:21;;;;;;;5.65;3.40;;;;;;;;;;4970970;28;20203;-73
2022/08/16 10:07:51;;;;;;;2.72;2.63;;;;;;;;;;4967746;28;20635;-74
2022/08/16 10:10:19;;;;;;;2.75;2.65;;;;;;;;;;4964311;28;20669;-74
2022/08/16 10:15:30;;;;;;;2.92;2.72;;;;;;;;;;4971176;28;20691;-74
2022/08/16 10:17:59;;;;;;;2.85;2.75;;;;;;;;;;4975694;28;20704;-73
2022/08/16 10:20:26;;;;;;;3.33;2.45;;;;;;;;;;4969248;28;20265;-74
2022/08/16 10:22:53;;;;;;;3.10;2.90;;;;;;;;;;4968060;28;20221;-74
2022/08/16 10:25:21;;;;;;;2.70;2.60;;;;;;;;;;4970740;28;20203;-63
2022/08/16 10:27:48;;;;;;;2.40;2.40;;;;;;;;;;4967495;28;20210;-63
2022/08/16 10:30:16;;;;;;;2.85;2.70;;;;;;;;;;4968824;28;20665;-63
2022/08/16 10:32:43;;;;;;;2.55;2.47;;;;;;;;;;4970068;28;20237;-65
2022/08/16 10:35:12;;;;;;;1.90;1.90;;;;;;;;;;4970328;28;20230;-63
2022/08/16 10:37:39;;;;;;;2.38;2.13;;;;;;;;;;4969810;28;20203;-64
2022/08/16 10:40:07;;;;;;;2.13;2.03;;;;;;;;;;4970001;28;20362;-65
2022/08/16 10:42:34;;;;;;;2.15;2.10;;;;;;;;;;4971042;28;20218;-65
2022/08/16 10:45:02;;;;;;;2.70;2.60;;;;;;;;;;4970455;28;20206;-65
2022/08/16 10:47:29;;;;;;;1.95;1.95;;;;;;;;;;4967604;28;20633;-65
2022/08/16 10:49:58;;;;;;;2.20;2.20;;;;;;;;;;4968662;28;20583;-64
2022/08/16 10:52:26;;;;;;;2.22;2.13;;;;;;;;;;4969894;28;20206;-66
2022/08/16 10:54:53;;;;;;;2.47;2.47;;;;;;;;;;4969677;28;20218;-68
2022/08/16 10:57:20;;;;;;;2.50;2.30;;;;;;;;;;4969697;28;20210;-68
2022/08/16 10:59:47;;;;;;;2.83;2.72;;;;;;;;;;4969508;28;20210;-67
2022/08/16 11:02:14;;;;;;;2.92;2.83;;;;;;;;;;4969119;28;20207;-65
2022/08/16 11:04:41;;;;;;;2.25;2.25;;;;;;;;;;4978907;28;20202;-65
2022/08/16 11:07:10;;;;;;;2.38;2.28;;;;;;;;;;4970314;28;20213;-66
2022/08/16 11:09:39;;;;;;;2.00;2.00;;;;;;;;;;4970136;28;20210;-66
2022/08/16 11:12:06;;;;;;;2.25;2.25;;;;;;;;;;4969920;28;20269;-68
2022/08/16 11:14:34;;;;;;;3.85;2.42;;;;;;;;;;4962868;28;20206;-66
2022/08/16 11:17:01;;;;;;;2.40;2.33;;;;;;;;;;4965272;28;20234;-67
2022/08/16 11:19:29;;;;;;;2.92;2.72;;;;;;;;;;4968896;28;20245;-65
2022/08/16 11:21:56;;;;;;;2.60;2.60;;;;;;;;;;4968324;28;20316;-64
2022/08/16 11:24:23;;;;;;;2.22;2.22;;;;;;;;;;4967284;28;20211;-65
2022/08/16 11:26:51;;;;;;;2.30;2.20;;;;;;;;;;4968287;28;20253;-68
2022/08/16 11:29:18;;;;;;;2.38;2.30;;;;;;;;;;4968119;28;20217;-64
2022/08/16 11:31:47;;;;;;;2.22;2.15;;;;;;;;;;4966764;28;20214;-65
2022/08/16 11:34:14;;;;;;;2.25;2.20;;;;;;;;;;4972313;28;20213;-65
2022/08/16 11:36:41;;;;;;;2.80;2.70;;;;;;;;;;4988436;28;20790;-65
2022/08/16 11:39:08;;;;;;;2.38;2.28;;;;;;;;;;4980897;28;20203;-64
2022/08/16 11:41:37;;;;;;;2.53;2.42;;;;;;;;;;4968716;28;20210;-66
2022/08/16 11:44:06;;;;;;;2.50;2.50;;;;;;;;;;4969312;28;20214;-65
2022/08/16 11:46:34;;;;;;;2.47;2.33;;;;;;;;;;4968560;28;20679;-67
2022/08/16 11:49:01;;;;;;;2.30;2.20;;;;;;;;;;4955463;28;20665;-67
2022/08/16 11:51:28;;;;;;;2.35;2.25;;;;;;;;;;4969532;28;20219;-66
2022/08/16 11:53:56;;;;;;;2.33;2.22;;;;;;;;;;4969782;28;20309;-65
2022/08/16 11:56:23;;;;;;;2.30;2.20;;;;;;;;;;4969326;28;20229;-65
2022/08/16 11:58:50;;;;;;;2.03;1.98;;;;;;;;;;4969769;28;20273;-66
2022/08/16 12:01:18;;;;;;;2.17;2.17;;;;;;;;;;4965598;28;20209;-66
2022/08/16 12:03:46;;;;;;;2.15;2.15;;;;;;;;;;4969460;28;20207;-66
2022/08/16 12:06:14;;;;;;;1.92;1.83;;;;;;;;;;4969052;28;20206;-66
2022/08/16 12:08:42;;;;;;;2.22;2.15;;;;;;;;;;4967718;28;20673;-66
2022/08/16 12:11:09;;;;;;;2.47;2.38;;;;;;;;;;4969649;28;20260;-65
2022/08/16 12:13:36;;;;;;;2.10;2.10;;;;;;;;;;4968664;28;20262;-66
2022/08/16 12:16:04;;;;;;;2.10;2.10;;;;;;;;;;4969143;28;20238;-66
2022/08/16 12:18:32;;;;;;;2.38;2.38;;;;;;;;;;4966962;28;20674;-66
2022/08/16 12:20:59;;;;;;;2.40;2.30;;;;;;;;;;4967509;28;20210;-66
2022/08/16 12:23:27;;;;;;;2.83;2.30;;;;;;;;;;4967185;28;20210;-66
2022/08/16 12:25:54;;;;;;;2.22;2.13;;;;;;;;;;4967599;28;20207;-66
2022/08/16 12:28:21;;;;;;;2.17;2.08;;;;;;;;;;4968684;28;20265;-66
2022/08/16 12:30:48;;;;;;;2.20;2.15;;;;;;;;;;4968731;28;20253;-66
2022/08/16 12:33:16;;;;;;;2.10;2.10;;;;;;;;;;4967813;28;20289;-66
2022/08/16 12:35:46;;;;;;;2.47;2.38;;;;;;;;;;4967049;28;20237;-66
2022/08/16 12:38:13;;;;;;;2.58;2.42;;;;;;;;;;4968015;28;20297;-67
2022/08/16 12:40:42;;;;;;;2.60;2.50;;;;;;;;;;4969184;28;20210;-67
2022/08/16 12:43:11;;;;;;;2.50;2.30;;;;;;;;;;4968943;28;20689;-68
2022/08/16 12:45:42;;;;;;;2.17;2.17;;;;;;;;;;4968849;28;20202;-65
2022/08/16 12:50:55;;;;;;;2.38;2.28;;;;;;;;;;4969143;28;20205;-65
2022/08/16 12:53:23;;;;;;;2.40;2.25;;;;;;;;;;4961006;28;20321;-65
2022/08/16 12:55:50;;;;;;;2.67;2.47;;;;;;;;;;4968318;28;20322;-65
2022/08/16 12:58:18;;;;;;;2.38;2.13;;;;;;;;;;4984936;28;20217;-65
2022/08/16 13:00:47;;;;;;;2.05;2.05;;;;;;;;;;4957110;28;20298;-66
2022/08/16 13:03:15;;;;;;;2.65;2.40;;;;;;;;;;4972044;28;20218;-65
2022/08/16 13:05:42;;;;;;;2.28;2.25;;;;;;;;;;4971840;28;20325;-66
2022/08/16 13:08:12;;;;;;;2.55;2.15;;;;;;;;;;4972365;28;20320;-66
2022/08/16 13:10:39;;;;;;;2.40;2.30;;;;;;;;;;4972168;28;20206;-67
2022/08/16 13:13:07;;;;;;;3.05;2.95;;;;;;;;;;4969963;28;20211;-67
2022/08/16 13:15:34;;;;;;;2.55;2.40;;;;;;;;;;4971530;28;20217;-67
2022/08/16 13:18:01;;;;;;;2.03;2.03;;;;;;;;;;4971808;28;20230;-66
2022/08/16 13:20:28;;;;;;;2.55;2.55;;;;;;;;;;4971624;28;20260;-66
2022/08/16 13:22:59;;;;;;;2.33;2.33;;;;;;;;;;4971887;28;20285;-66
2022/08/16 13:25:28;;;;;;;2.60;2.50;;;;;;;;;;4971425;28;20780;-66
2022/08/16 13:27:55;;;;;;;2.20;2.20;;;;;;;;;;4970979;28;20203;-66
2022/08/16 13:30:23;;;;;;;2.10;2.10;;;;;;;;;;4971571;28;20218;-67
2022/08/16 13:32:51;;;;;;;2.28;2.17;;;;;;;;;;4971552;28;20214;-67
2022/08/16 13:35:18;;;;;;;2.10;2.10;;;;;;;;;;4971262;28;20277;-66
2022/08/16 13:37:45;;;;;;;2.35;2.25;;;;;;;;;;4971498;28;20289;-66
2022/08/16 13:40:13;;;;;;;2.22;2.22;;;;;;;;;;4971584;28;20537;-66
2022/08/16 13:42:42;;;;;;;2.40;2.30;;;;;;;;;;4957407;28;20552;-66
2022/08/16 13:45:10;;;;;;;2.22;2.20;;;;;;;;;;4970915;28;20198;-66
2022/08/16 13:47:38;;;;;;;2.22;2.22;;;;;;;;;;4971059;28;20202;-66
2022/08/16 13:50:05;;;;;;;2.25;2.15;;;;;;;;;;4971305;28;20260;-66
2022/08/16 13:52:33;;;;;;;2.25;2.25;;;;;;;;;;4971218;28;20210;-65
2022/08/16 13:55:00;;;;;;;2.60;2.50;;;;;;;;;;4970889;28;20209;-66
2022/08/16 13:57:27;;;;;;;2.22;2.13;;;;;;;;;;4970866;28;20820;-66
2022/08/16 13:59:55;;;;;;;2.22;2.05;;;;;;;;;;4970794;28;20305;-66
2022/08/16 14:02:22;;;;;;;2.30;2.30;;;;;;;;;;4970792;28;20308;-66
2022/08/16 14:04:49;;;;;;;2.10;2.00;;;;;;;;;;4970751;28;20688;-66
2022/08/16 14:07:16;;;;;;;2.30;2.22;;;;;;;;;;4970171;28;20202;-66
2022/08/16 14:09:43;;;;;;;2.40;2.30;;;;;;;;;;4980672;28;20214;-66
2022/08/16 14:12:18;;;;;;;2.25;2.25;;;;;;;;;;4969108;28;20203;-66
2022/08/16 14:14:45;;;;;;;2.00;2.00;;;;;;;;;;4970603;28;20713;-66
2022/08/16 14:17:13;;;;;;;2.00;2.00;;;;;;;;;;4968523;28;20586;-66
2022/08/16 14:19:40;;;;;;;2.13;2.13;;;;;;;;;;4967369;28;20234;-66
2022/08/16 14:22:08;;;;;;;2.53;2.42;;;;;;;;;;4970077;28;20218;-66
2022/08/16 14:24:37;;;;;;;2.55;2.17;;;;;;;;;;4970205;28;20217;-66
2022/08/16 14:27:04;;;;;;;2.53;1.90;;;;;;;;;;4970544;28;20293;-66
2022/08/16 14:29:32;;;;;;;2.47;2.40;;;;;;;;;;4970329;28;20313;-67
2022/08/16 14:31:59;;;;;;;1.88;1.88;;;;;;;;;;4970799;28;20741;-68
2022/08/16 14:34:28;;;;;;;1.80;1.80;;;;;;;;;;4965908;28;20213;-68
2022/08/16 14:36:55;;;;;;;2.10;2.10;;;;;;;;;;4968831;28;20288;-68
2022/08/16 14:39:22;;;;;;;2.08;2.05;;;;;;;;;;4970114;28;20222;-68
2022/08/16 14:41:49;;;;;;;1.70;1.70;;;;;;;;;;4969876;28;20265;-68
2022/08/16 14:44:16;;;;;;;1.92;1.83;;;;;;;;;;4970119;28;20585;-67
2022/08/16 14:46:43;;;;;;;1.83;1.73;;;;;;;;;;4969985;28;20202;-67
2022/08/16 14:49:10;;;;;;;1.75;1.75;;;;;;;;;;4964033;28;20699;-67
2022/08/16 14:51:39;;;;;;;1.90;1.75;;;;;;;;;;4964902;28;20245;-66